Time;durP1;ratioP1;P1;durP2;ratioP2;P2;SDS_P1;SDS_P2;PMS_P1;PMS_P2;Temp;Humidity;BMP_temperature;BMP_pressure;BME280_temperature;BME280_humidity;BME280_pressure;Samples;Min_cycle;Max_cycle;Signal;HPM_P1;HPM_P2
2022/09/11 00:00:36;;;;;;;25.70;18.65;;;13.90;99.90;;;;;;5065437;28;20056;-72
2022/09/11 00:03:01;;;;;;;24.40;18.52;;;13.90;99.90;;;;;;5064704;28;20113;-72
2022/09/11 00:05:27;;;;;;;22.00;17.23;;;13.80;99.90;;;;;;5065294;28;20044;-72
2022/09/11 00:07:53;;;;;;;22.83;17.75;;;13.80;99.90;;;;;;5064892;28;20037;-73
2022/09/11 00:10:19;;;;;;;21.40;16.90;;;13.80;99.90;;;;;;5065626;28;20044;-73
2022/09/11 00:12:45;;;;;;;22.17;16.40;;;13.80;99.90;;;;;;5065513;28;20071;-72
2022/09/11 00:15:11;;;;;;;22.33;16.98;;;13.70;99.90;;;;;;5063259;28;20136;-72
2022/09/11 00:17:37;;;;;;;22.23;17.60;;;13.80;99.90;;;;;;5063474;28;20131;-72
2022/09/11 00:20:03;;;;;;;21.73;17.27;;;13.80;99.90;;;;;;5049744;28;20037;-72
2022/09/11 00:22:29;;;;;;;21.98;16.60;;;13.70;99.90;;;;;;5063636;28;20032;-71
2022/09/11 00:24:56;;;;;;;23.25;16.67;;;13.70;99.90;;;;;;5066057;28;20123;-73
2022/09/11 00:27:22;;;;;;;23.08;18.48;;;13.70;99.90;;;;;;5065256;28;20243;-73
2022/09/11 00:29:48;;;;;;;22.05;17.00;;;13.70;99.90;;;;;;5064981;28;20045;-72
2022/09/11 00:32:14;;;;;;;22.38;16.48;;;13.70;99.90;;;;;;5063072;28;20189;-72
2022/09/11 00:34:40;;;;;;;22.05;17.98;;;13.70;99.90;;;;;;5066341;28;20040;-72
2022/09/11 00:37:06;;;;;;;20.30;15.88;;;13.70;99.90;;;;;;5066418;28;20087;-71
2022/09/11 00:39:32;;;;;;;22.15;17.05;;;13.70;99.90;;;;;;5063858;28;20445;-72
2022/09/11 00:41:57;;;;;;;19.73;16.20;;;13.70;99.90;;;;;;5065261;28;20044;-72
2022/09/11 00:44:23;;;;;;;23.58;16.98;;;13.70;99.90;;;;;;5064835;28;20040;-72
2022/09/11 00:47:07;;;;;;;23.83;16.38;;;13.70;99.90;;;;;;5063156;28;20052;-73
2022/09/11 00:49:53;;;;;;;21.42;16.02;;;13.70;99.90;;;;;;5079230;28;20076;-72
2022/09/11 00:52:27;;;;;;;21.70;16.55;;;13.70;99.90;;;;;;5044440;28;20139;-72
2022/09/11 00:54:58;;;;;;;20.35;16.45;;;13.70;99.90;;;;;;5066030;28;20040;-73
2022/09/11 00:57:29;;;;;;;21.58;16.55;;;13.70;99.90;;;;;;5064942;28;20044;-72
2022/09/11 00:59:58;;;;;;;21.87;16.83;;;13.70;99.90;;;;;;5065365;28;20051;-72
2022/09/11 01:02:29;;;;;;;18.35;15.02;;;13.70;99.90;;;;;;5064665;28;20044;-71
2022/09/11 01:04:55;;;;;;;19.40;15.57;;;13.70;99.90;;;;;;5079162;28;20048;-72
2022/09/11 01:07:23;;;;;;;23.17;16.85;;;13.70;99.90;;;;;;5048066;28;20244;-72
2022/09/11 01:09:50;;;;;;;18.10;15.13;;;13.60;99.90;;;;;;5064180;28;20048;-72
2022/09/11 01:12:35;;;;;;;18.45;15.38;;;13.70;99.90;;;;;;5046686;28;20041;-72
2022/09/11 01:15:05;;;;;;;19.58;14.38;;;13.60;99.90;;;;;;5063925;28;20036;-72
2022/09/11 01:18:04;;;;;;;18.13;14.82;;;13.60;99.90;;;;;;5065401;28;20048;-72
2022/09/11 01:20:46;;;;;;;18.25;13.52;;;13.60;99.90;;;;;;5065174;28;20056;-72
2022/09/11 01:23:54;;;;;;;19.77;14.88;;;13.60;99.90;;;;;;5063456;28;20086;-72
2022/09/11 01:26:36;;;;;;;17.60;14.63;;;13.60;99.90;;;;;;5038890;28;20432;-72
2022/09/11 01:29:16;;;;;;;20.35;14.80;;;13.70;99.90;;;;;;5049050;28;20068;-72
2022/09/11 01:31:56;;;;;;;18.40;13.98;;;13.50;99.90;;;;;;5063545;28;20547;-71
2022/09/11 01:34:30;;;;;;;18.05;14.35;;;13.50;99.90;;;;;;5077402;28;20032;-72
2022/09/11 01:37:05;;;;;;;17.67;14.32;;;13.50;99.90;;;;;;5066274;28;20082;-71
2022/09/11 01:39:40;;;;;;;17.63;12.98;;;13.50;99.90;;;;;;5047739;28;20288;-73
2022/09/11 01:42:15;;;;;;;16.35;13.15;;;13.50;99.90;;;;;;5063224;28;20044;-72
2022/09/11 01:44:53;;;;;;;18.92;12.85;;;13.50;99.90;;;;;;5064559;28;20559;-72
2022/09/11 01:47:19;;;;;;;16.58;13.52;;;13.50;99.90;;;;;;5062079;28;20052;-72
2022/09/11 01:50:08;;;;;;;15.95;12.90;;;13.40;99.90;;;;;;5065413;28;20036;-72
2022/09/11 01:52:42;;;;;;;15.73;12.98;;;13.40;99.90;;;;;;5063210;28;20041;-72
2022/09/11 01:55:19;;;;;;;15.02;12.73;;;13.40;99.90;;;;;;5076582;28;20053;-72
2022/09/11 01:57:51;;;;;;;14.65;11.75;;;13.40;99.90;;;;;;5064280;28;20052;-73
2022/09/11 02:00:17;;;;;;;;;;;13.40;99.90;;;;;;5063325;28;20127;-72
2022/09/11 02:02:50;;;;;;;15.82;11.68;;;13.40;99.90;;;;;;5066339;28;20023;-72
2022/09/11 02:05:27;;;;;;;14.40;12.13;;;13.40;99.90;;;;;;5070175;28;20048;-72
2022/09/11 02:08:15;;;;;;;15.45;12.23;;;13.40;99.90;;;;;;5067942;28;20497;-72
2022/09/11 02:10:54;;;;;;;18.17;13.52;;;13.30;99.90;;;;;;5068482;28;20128;-72
2022/09/11 02:13:53;;;;;;;17.65;12.88;;;13.30;99.90;;;;;;5068969;28;20032;-73
2022/09/11 02:16:35;;;;;;;16.23;12.00;;;13.30;99.90;;;;;;5063599;28;20130;-72
2022/09/11 02:19:09;;;;;;;17.48;13.60;;;13.30;99.90;;;;;;5051557;28;20261;-72
2022/09/11 02:21:36;;;;;;;16.25;11.88;;;13.30;99.90;;;;;;5068698;28;20098;-72
2022/09/11 02:24:03;;;;;;;15.98;12.65;;;13.30;99.90;;;;;;5067156;28;20047;-72
2022/09/11 02:26:32;;;;;;;17.23;12.57;;;13.30;99.90;;;;;;5063964;28;20090;-72
2022/09/11 02:28:58;;;;;;;17.17;12.73;;;13.30;99.90;;;;;;5064457;28;20036;-72
2022/09/11 02:31:25;;;;;;;15.18;11.63;;;13.30;99.90;;;;;;5066615;28;20040;-72
2022/09/11 02:33:50;;;;;;;15.68;12.25;;;13.20;99.90;;;;;;5063393;28;20048;-72
2022/09/11 02:36:47;;;;;;;15.77;11.43;;;13.20;99.90;;;;;;5063668;28;20105;-73
2022/09/11 02:39:13;;;;;;;15.30;12.10;;;13.20;99.90;;;;;;5065579;28;20044;-73
2022/09/11 02:41:56;;;;;;;15.93;11.73;;;13.20;99.90;;;;;;5067492;28;20037;-73
2022/09/11 02:44:35;;;;;;;15.10;11.40;;;13.20;99.90;;;;;;5062586;28;20040;-72
2022/09/11 02:47:32;;;;;;;13.73;11.25;;;13.10;99.90;;;;;;5066575;28;20177;-72
2022/09/11 02:50:12;;;;;;;14.68;11.13;;;13.10;99.90;;;;;;5073064;28;20033;-72
2022/09/11 02:52:50;;;;;;;13.93;11.30;;;13.10;99.90;;;;;;5049019;28;20405;-73
2022/09/11 02:55:26;;;;;;;15.38;10.48;;;13.10;99.90;;;;;;5066792;28;20072;-71
2022/09/11 02:58:20;;;;;;;13.02;10.55;;;13.10;99.90;;;;;;5062404;28;20056;-72
2022/09/11 03:00:46;;;;;;;15.52;11.50;;;13.00;99.90;;;;;;5065526;28;20180;-72
2022/09/11 03:03:13;;;;;;;14.85;10.65;;;13.00;99.90;;;;;;5064877;28;20106;-72
2022/09/11 03:05:39;;;;;;;13.00;10.38;;;13.00;99.90;;;;;;5065660;28;20037;-72
2022/09/11 03:08:06;;;;;;;15.50;11.52;;;13.00;99.90;;;;;;5083313;28;20040;-72
2022/09/11 03:10:33;;;;;;;14.15;11.50;;;13.00;99.90;;;;;;5064631;28;20087;-72
2022/09/11 03:12:58;;;;;;;16.02;12.02;;;13.00;99.90;;;;;;5079878;28;20040;-72
2022/09/11 03:15:25;;;;;;;14.45;10.95;;;13.00;99.90;;;;;;5076820;28;20103;-72
2022/09/11 03:17:51;;;;;;;14.10;10.98;;;12.90;99.90;;;;;;5062999;28;20076;-72
2022/09/11 03:20:20;;;;;;;15.88;11.75;;;12.90;99.90;;;;;;5063218;28;20505;-72
2022/09/11 03:22:46;;;;;;;15.30;11.38;;;12.90;99.90;;;;;;5065227;28;20048;-73
2022/09/11 03:25:12;;;;;;;17.23;11.55;;;13.10;99.90;;;;;;5064234;28;20046;-72
2022/09/11 03:27:38;;;;;;;13.68;10.25;;;12.70;99.90;;;;;;5065316;28;20651;-72
2022/09/11 03:30:05;;;;;;;12.98;10.23;;;12.80;99.90;;;;;;5061439;28;20102;-72
2022/09/11 03:32:31;;;;;;;13.93;10.55;;;12.80;99.90;;;;;;5064869;28;20053;-72
2022/09/11 03:34:57;;;;;;;13.15;9.88;;;12.80;99.90;;;;;;5065153;28;20033;-72
2022/09/11 03:37:23;;;;;;;14.95;10.05;;;12.80;99.90;;;;;;5066563;28;20033;-72
2022/09/11 03:39:48;;;;;;;12.43;9.88;;;12.70;99.90;;;;;;5061967;28;20049;-72
2022/09/11 03:42:14;;;;;;;13.45;9.00;;;12.80;99.90;;;;;;5064004;28;20047;-72
2022/09/11 03:44:40;;;;;;;12.57;9.35;;;12.80;99.90;;;;;;5048230;28;20441;-72
2022/09/11 03:47:06;;;;;;;11.40;9.45;;;12.70;99.90;;;;;;5047534;28;20064;-72
2022/09/11 03:49:32;;;;;;;12.55;9.95;;;12.70;99.90;;;;;;5066177;28;20043;-72
2022/09/11 03:51:59;;;;;;;11.40;8.98;;;12.70;99.90;;;;;;5078176;28;20076;-72
2022/09/11 03:54:26;;;;;;;12.73;9.38;;;12.70;99.90;;;;;;5062489;28;20094;-72
2022/09/11 03:56:52;;;;;;;12.55;8.43;;;12.70;99.90;;;;;;5063357;28;20071;-72
2022/09/11 03:59:19;;;;;;;10.70;8.85;;;12.60;99.90;;;;;;5047490;28;20127;-72
2022/09/11 04:01:45;;;;;;;13.13;8.75;;;12.60;99.90;;;;;;5064045;28;20044;-72
2022/09/11 04:04:11;;;;;;;11.02;8.20;;;12.60;99.90;;;;;;5063292;28;20056;-72
2022/09/11 04:06:37;;;;;;;11.98;8.90;;;12.70;99.90;;;;;;5064965;28;20413;-74
2022/09/11 04:09:03;;;;;;;11.02;8.63;;;12.60;99.90;;;;;;5065387;28;20051;-72
2022/09/11 04:11:30;;;;;;;11.65;8.30;;;12.60;99.90;;;;;;5064309;28;20044;-71
2022/09/11 04:13:56;;;;;;;11.52;8.60;;;12.60;99.90;;;;;;5064842;28;20504;-72
2022/09/11 04:16:22;;;;;;;10.75;8.32;;;12.60;99.90;;;;;;5065229;28;20055;-72
2022/09/11 04:18:48;;;;;;;11.52;8.95;;;12.60;99.90;;;;;;5066206;28;20065;-72
2022/09/11 04:21:17;;;;;;;13.48;8.68;;;12.60;99.90;;;;;;5066845;28;20059;-73
2022/09/11 04:23:44;;;;;;;10.95;8.73;;;12.50;99.90;;;;;;5067385;28;20044;-70
2022/09/11 04:26:18;;;;;;;10.73;8.25;;;12.50;99.90;;;;;;5064808;28;20052;-72
2022/09/11 04:28:45;;;;;;;10.63;8.02;;;12.50;99.90;;;;;;5059871;28;20116;-72
2022/09/11 04:31:12;;;;;;;10.27;8.45;;;12.50;99.90;;;;;;5063994;28;20060;-72
2022/09/11 04:33:38;;;;;;;10.27;7.85;;;12.50;99.90;;;;;;5063071;28;20044;-72
2022/09/11 04:36:30;;;;;;;10.98;7.90;;;12.50;99.90;;;;;;5064550;28;20052;-72
2022/09/11 04:38:58;;;;;;;10.93;7.35;;;12.50;99.90;;;;;;5061887;28;20408;-72
2022/09/11 04:41:28;;;;;;;10.52;7.95;;;12.50;99.90;;;;;;5060920;28;20040;-72
2022/09/11 04:43:59;;;;;;;11.55;7.82;;;12.40;99.90;;;;;;5062993;28;20048;-72
2022/09/11 04:46:25;;;;;;;;;;;12.40;99.90;;;;;;5045434;28;20037;-72
2022/09/11 04:48:54;;;;;;;9.50;7.22;;;12.40;99.90;;;;;;5061632;28;19924;-72
2022/09/11 04:51:26;;;;;;;9.52;7.53;;;12.40;99.90;;;;;;5058718;28;20091;-72
2022/09/11 04:53:56;;;;;;;11.82;7.53;;;12.40;99.90;;;;;;5063428;28;20044;-72
2022/09/11 04:56:29;;;;;;;10.15;7.20;;;12.40;99.90;;;;;;5060628;28;20682;-73
2022/09/11 04:59:01;;;;;;;10.55;7.03;;;12.40;99.90;;;;;;5064659;28;20437;-72
2022/09/11 05:01:28;;;;;;;;;;;12.40;99.90;;;;;;5062812;28;20055;-72
2022/09/11 05:03:55;;;;;;;9.52;6.32;;;12.30;99.90;;;;;;5082477;28;19929;-72
2022/09/11 05:06:21;;;;;;;13.02;7.60;;;12.30;99.90;;;;;;5063634;28;20393;-72
2022/09/11 05:08:48;;;;;;;11.10;7.25;;;12.30;99.90;;;;;;5063513;28;20127;-72
2022/09/11 05:11:16;;;;;;;10.20;6.55;;;12.30;99.90;;;;;;5064457;28;20071;-72
2022/09/11 05:13:43;;;;;;;10.95;7.57;;;12.30;99.90;;;;;;5057567;28;20124;-72
2022/09/11 05:16:14;;;;;;;11.70;7.07;;;12.30;99.90;;;;;;5062285;28;20048;-72
2022/09/11 05:18:41;;;;;;;;;;;12.30;99.90;;;;;;5062363;28;20044;-72
2022/09/11 05:21:11;;;;;;;9.73;6.57;;;12.30;99.90;;;;;;5062984;28;19958;-72
2022/09/11 05:23:38;;;;;;;10.30;6.95;;;12.30;99.90;;;;;;5045875;28;20393;-72
2022/09/11 05:26:05;;;;;;;9.70;6.60;;;12.30;99.90;;;;;;5060618;28;20075;-72
2022/09/11 05:28:32;;;;;;;9.60;6.70;;;12.30;99.90;;;;;;5062499;28;20091;-72
2022/09/11 05:30:58;;;;;;;9.95;7.45;;;12.30;99.90;;;;;;5058776;28;20693;-72
2022/09/11 05:33:26;;;;;;;10.77;8.15;;;12.30;99.90;;;;;;5060805;28;20059;-72
2022/09/11 05:36:03;;;;;;;13.95;8.75;;;12.30;99.90;;;;;;5062588;28;20052;-72
2022/09/11 05:38:28;;;;;;;11.15;8.25;;;12.30;99.90;;;;;;5059662;28;20559;-72
2022/09/11 05:40:55;;;;;;;11.98;7.78;;;12.30;99.90;;;;;;5061975;28;20059;-72
2022/09/11 05:43:21;;;;;;;9.68;7.35;;;12.30;99.90;;;;;;5056706;28;20052;-72
2022/09/11 05:45:55;;;;;;;10.45;7.35;;;12.30;99.90;;;;;;5059713;28;20575;-72
2022/09/11 05:48:21;;;;;;;9.40;7.35;;;12.50;99.90;;;;;;5060172;28;20249;-72
2022/09/11 05:50:54;;;;;;;10.10;7.90;;;12.40;99.90;;;;;;5063675;28;20049;-72
2022/09/11 05:53:21;;;;;;;9.73;7.78;;;12.40;99.90;;;;;;5045554;28;20048;-72
2022/09/11 05:55:48;;;;;;;15.68;8.57;;;12.50;99.90;;;;;;5071485;28;20041;-72
2022/09/11 05:58:16;;;;;;;9.35;7.28;;;12.60;99.90;;;;;;5063983;28;20037;-72
2022/09/11 06:00:45;;;;;;;11.43;7.85;;;12.60;99.90;;;;;;5060621;28;20043;-72
2022/09/11 06:03:12;;;;;;;10.43;7.80;;;12.70;99.90;;;;;;5060522;28;20127;-73
2022/09/11 06:05:38;;;;;;;12.02;7.97;;;12.70;99.90;;;;;;5064270;28;20442;-72
2022/09/11 06:08:03;;;;;;;11.65;8.07;;;12.90;99.90;;;;;;5060910;28;20178;-72
2022/09/11 06:10:29;;;;;;;11.75;8.48;;;12.80;99.90;;;;;;5041768;28;20077;-72
2022/09/11 06:12:56;;;;;;;12.70;9.02;;;12.90;99.90;;;;;;5072591;28;20040;-71
2022/09/11 06:15:21;;;;;;;10.10;8.02;;;12.90;99.90;;;;;;5073602;28;20048;-71
2022/09/11 06:17:47;;;;;;;11.95;8.98;;;12.90;99.90;;;;;;5040618;28;20056;-72
2022/09/11 06:20:13;;;;;;;11.32;9.25;;;13.00;99.90;;;;;;5050084;28;20243;-72
2022/09/11 06:22:39;;;;;;;11.77;9.25;;;13.00;99.90;;;;;;5056644;28;20416;-72
2022/09/11 06:25:05;;;;;;;12.18;8.32;;;13.10;99.90;;;;;;5056833;28;20154;-72
2022/09/11 06:27:31;;;;;;;11.73;8.68;;;13.10;99.90;;;;;;5061836;28;20052;-72
2022/09/11 06:29:56;;;;;;;12.45;8.93;;;13.20;99.90;;;;;;5060920;28;20097;-72
2022/09/11 06:32:22;;;;;;;11.43;8.98;;;13.30;99.90;;;;;;5056159;28;20142;-72
2022/09/11 06:34:48;;;;;;;12.45;9.45;;;13.30;99.90;;;;;;5052748;28;20057;-72
2022/09/11 06:37:13;;;;;;;14.00;10.25;;;13.40;99.90;;;;;;5059401;28;20053;-72
2022/09/11 06:39:39;;;;;;;12.63;9.30;;;13.50;99.90;;;;;;5061324;28;21377;-72
2022/09/11 06:42:06;;;;;;;12.32;9.45;;;13.50;99.90;;;;;;5056147;28;20413;-72
2022/09/11 06:44:32;;;;;;;13.05;9.52;;;13.50;99.90;;;;;;5058813;28;20051;-72
2022/09/11 06:46:58;;;;;;;18.63;9.45;;;13.60;99.90;;;;;;5057104;28;20049;-72
2022/09/11 06:49:24;;;;;;;10.90;9.20;;;13.70;99.90;;;;;;5059073;28;20094;-72
2022/09/11 06:51:51;;;;;;;12.45;9.30;;;13.80;99.90;;;;;;5065535;28;20079;-73
2022/09/11 06:54:16;;;;;;;14.30;9.68;;;13.80;99.90;;;;;;5064785;28;20052;-72
2022/09/11 06:56:44;;;;;;;12.02;9.63;;;13.80;99.90;;;;;;5061736;28;20048;-72
2022/09/11 06:59:09;;;;;;;13.85;9.60;;;13.90;99.90;;;;;;5065008;28;20116;-73
2022/09/11 07:01:35;;;;;;;13.70;9.52;;;13.90;99.90;;;;;;5046260;28;20128;-72
2022/09/11 07:04:01;;;;;;;13.98;9.43;;;14.10;99.90;;;;;;5067091;28;20262;-72
2022/09/11 07:06:29;;;;;;;13.88;8.68;;;14.10;99.90;;;;;;5063672;28;20033;-72
2022/09/11 07:09:01;;;;;;;12.68;9.30;;;14.20;99.90;;;;;;5058778;28;20401;-72
2022/09/11 07:11:31;;;;;;;12.35;9.02;;;14.20;99.90;;;;;;5058944;28;20460;-74
2022/09/11 07:13:58;;;;;;;13.30;9.70;;;14.40;99.90;;;;;;5063287;28;20033;-73
2022/09/11 07:16:24;;;;;;;14.68;9.80;;;14.50;99.90;;;;;;5056751;28;20123;-72
2022/09/11 07:18:50;;;;;;;15.25;10.68;;;14.70;99.90;;;;;;5044309;28;20059;-73
2022/09/11 07:21:21;;;;;;;14.35;10.30;;;14.80;99.90;;;;;;5062551;28;20441;-73
2022/09/11 07:23:48;;;;;;;;;;;15.00;99.90;;;;;;5071568;28;20132;-73
2022/09/11 07:26:15;;;;;;;14.43;9.30;;;15.30;99.90;;;;;;5056465;28;19928;-73
2022/09/11 07:28:40;;;;;;;10.38;8.32;;;15.40;99.90;;;;;;5058672;28;20569;-73
2022/09/11 07:31:15;;;;;;;13.38;8.48;;;15.60;99.90;;;;;;5064996;28;20040;-74
2022/09/11 07:33:47;;;;;;;13.38;8.25;;;15.90;99.90;;;;;;5060675;28;20076;-73
2022/09/11 07:36:18;;;;;;;12.07;8.30;;;16.10;99.90;;;;;;5059706;28;20076;-73
2022/09/11 07:38:45;;;;;;;;;;;16.30;99.90;;;;;;5064055;28;20041;-73
2022/09/11 07:41:12;;;;;;;10.80;8.15;;;16.60;99.90;;;;;;5060278;28;19924;-73
2022/09/11 07:43:40;;;;;;;12.50;7.95;;;16.80;99.90;;;;;;5048777;28;20409;-73
2022/09/11 07:46:08;;;;;;;11.48;7.75;;;17.00;99.90;;;;;;5041849;28;20051;-75
2022/09/11 07:48:34;;;;;;;9.57;6.88;;;17.10;99.90;;;;;;5059206;28;20036;-73
2022/09/11 07:51:03;;;;;;;13.48;9.68;;;17.30;99.90;;;;;;5059762;28;20551;-73
2022/09/11 07:53:36;;;;;;;9.52;7.60;;;17.50;99.90;;;;;;5071048;28;20052;-73
2022/09/11 07:56:10;;;;;;;11.63;7.53;;;17.60;99.90;;;;;;5046995;28;20048;-74
2022/09/11 07:58:38;;;;;;;11.63;7.50;;;17.70;99.90;;;;;;5060908;28;20530;-74
2022/09/11 08:01:09;;;;;;;11.15;7.28;;;17.80;99.90;;;;;;5061430;28;20472;-74
2022/09/11 08:03:36;;;;;;;10.30;7.45;;;18.00;99.90;;;;;;5057211;28;20123;-73
2022/09/11 08:06:05;;;;;;;11.70;7.55;;;18.10;99.90;;;;;;5046020;28;20059;-74
2022/09/11 08:08:31;;;;;;;12.27;9.20;;;18.20;99.90;;;;;;5060878;28;20398;-74
2022/09/11 08:11:01;;;;;;;9.50;7.78;;;18.20;99.90;;;;;;5064010;28;20040;-74
2022/09/11 08:13:27;;;;;;;10.90;7.65;;;18.30;99.90;;;;;;5056730;28;20041;-73
2022/09/11 08:15:53;;;;;;;9.60;6.90;;;18.40;99.90;;;;;;5066829;28;20043;-74
2022/09/11 08:18:19;;;;;;;9.45;6.90;;;18.50;99.90;;;;;;5051459;28;20071;-74
2022/09/11 08:20:44;;;;;;;9.85;7.65;;;18.60;99.90;;;;;;5061067;28;20090;-74
2022/09/11 08:23:11;;;;;;;11.15;7.57;;;18.70;99.90;;;;;;5065646;28;20453;-73
2022/09/11 08:25:37;;;;;;;10.35;7.00;;;18.80;99.90;;;;;;5062559;28;20071;-75
2022/09/11 08:28:04;;;;;;;12.07;8.00;;;18.90;99.90;;;;;;5058058;28;20055;-74
2022/09/11 08:30:32;;;;;;;10.80;6.85;;;18.90;99.90;;;;;;5057249;28;20040;-74
2022/09/11 08:32:58;;;;;;;12.15;7.43;;;18.90;99.90;;;;;;5064123;28;20040;-74
2022/09/11 08:35:25;;;;;;;10.35;6.75;;;18.80;99.90;;;;;;5063668;28;20051;-74
2022/09/11 08:37:52;;;;;;;10.15;7.13;;;18.80;99.90;;;;;;5065111;28;20041;-74
2022/09/11 08:40:18;;;;;;;9.15;6.10;;;18.80;99.90;;;;;;5062474;28;20094;-74
2022/09/11 08:42:45;;;;;;;14.77;6.97;;;18.80;99.90;;;;;;5059203;28;20474;-74
2022/09/11 08:45:17;;;;;;;7.63;5.80;;;18.70;99.90;;;;;;5062022;28;20133;-74
2022/09/11 08:47:55;;;;;;;11.23;6.53;;;18.70;99.90;;;;;;5070834;28;20048;-74
2022/09/11 08:50:30;;;;;;;10.23;6.32;;;18.60;99.90;;;;;;5061361;28;20071;-74
2022/09/11 08:52:56;;;;;;;9.82;6.53;;;18.60;99.90;;;;;;5058949;28;20050;-74
2022/09/11 08:55:38;;;;;;;9.93;6.68;;;18.60;99.90;;;;;;5051167;28;20040;-74
2022/09/11 08:58:26;;;;;;;10.95;6.10;;;18.60;99.90;;;;;;5054429;28;20501;-74
2022/09/11 09:01:03;;;;;;;9.07;5.22;;;18.60;99.90;;;;;;5056982;28;20044;-74
2022/09/11 09:04:08;;;;;;;9.93;5.45;;;18.60;99.90;;;;;;5054074;28;20572;-75
2022/09/11 09:07:13;;;;;;;11.20;5.60;;;18.60;99.90;;;;;;5052983;28;20059;-74
2022/09/11 09:09:54;;;;;;;8.48;5.20;;;18.50;99.90;;;;;;5057907;28;20040;-74
2022/09/11 09:12:32;;;;;;;;;;;18.50;99.90;;;;;;5048372;28;20052;-74
2022/09/11 09:15:16;;;;;;;7.45;4.28;;;18.50;99.90;;;;;;5035471;28;19928;-74
2022/09/11 09:17:58;;;;;;;9.45;4.32;;;18.50;99.90;;;;;;5066829;28;20048;-74
2022/09/11 09:20:42;;;;;;;9.50;4.28;;;18.50;99.90;;;;;;5054423;28;20043;-74
2022/09/11 09:23:18;;;;;;;9.88;4.75;;;18.50;99.90;;;;;;5055882;28;20044;-74
2022/09/11 09:25:45;;;;;;;7.30;4.80;;;18.50;99.90;;;;;;5055011;28;20924;-74
2022/09/11 09:28:13;;;;;;;9.07;4.60;;;18.50;99.90;;;;;;5057429;28;20109;-74
2022/09/11 09:30:52;;;;;;;9.68;4.78;;;18.50;99.90;;;;;;5058982;28;20113;-74
2022/09/11 09:33:55;;;;;;;8.13;4.63;;;18.50;99.90;;;;;;5047895;28;20122;-74
2022/09/11 09:36:30;;;;;;;8.93;4.80;;;18.60;99.90;;;;;;5045066;28;20416;-74
2022/09/11 09:38:57;;;;;;;9.73;5.00;;;18.60;99.90;;;;;;5058168;28;20587;-73
2022/09/11 09:41:32;;;;;;;8.30;4.97;;;18.70;99.90;;;;;;5042944;28;20033;-74
2022/09/11 09:44:17;;;;;;;10.15;5.43;;;18.80;99.90;;;;;;5058820;28;20710;-74
2022/09/11 09:46:45;;;;;;;10.05;4.32;;;19.00;99.90;;;;;;5055351;28;20739;-74
2022/09/11 09:49:17;;;;;;;7.22;3.88;;;19.10;99.90;;;;;;5042609;28;20096;-74
2022/09/11 09:51:43;;;;;;;6.97;3.67;;;19.10;99.90;;;;;;5059360;28;20036;-74
2022/09/11 09:54:15;;;;;;;6.00;3.40;;;19.10;99.90;;;;;;5061550;28;20064;-74
2022/09/11 09:56:44;;;;;;;7.35;3.67;;;19.00;99.90;;;;;;5052564;28;20036;-74
2022/09/11 09:59:10;;;;;;;6.78;3.47;;;19.00;99.90;;;;;;5062759;28;20087;-75
2022/09/11 10:01:43;;;;;;;6.68;3.03;;;19.00;99.90;;;;;;5058447;28;20106;-74
2022/09/11 10:04:12;;;;;;;6.43;2.80;;;19.10;99.90;;;;;;5058608;28;21399;-75
2022/09/11 10:06:38;;;;;;;6.55;2.70;;;19.20;99.90;;;;;;5054585;28;20436;-74
2022/09/11 10:09:04;;;;;;;5.25;2.58;;;19.30;99.90;;;;;;5058493;28;20094;-75
2022/09/11 10:11:30;;;;;;;6.63;2.70;;;19.30;99.90;;;;;;5059130;28;20187;-74
2022/09/11 10:13:56;;;;;;;7.55;2.95;;;19.40;99.90;;;;;;5062926;28;20036;-74
2022/09/11 10:16:25;;;;;;;5.22;2.65;;;19.50;99.90;;;;;;5061072;28;20486;-75
2022/09/11 10:18:53;;;;;;;6.70;2.53;;;19.60;99.90;;;;;;5065467;28;20460;-75
2022/09/11 10:21:24;;;;;;;6.05;2.33;;;19.70;99.90;;;;;;5060555;28;20127;-75
2022/09/11 10:23:58;;;;;;;6.38;2.40;;;19.80;99.90;;;;;;5044681;28;20477;-74
2022/09/11 10:26:49;;;;;;;5.88;2.58;;;19.90;99.90;;;;;;5065500;28;20048;-75
2022/09/11 10:29:28;;;;;;;8.57;2.38;;;20.00;99.90;;;;;;5048783;28;20058;-74
2022/09/11 10:32:02;;;;;;;5.43;2.20;;;20.10;99.90;;;;;;5056958;28;20783;-75
2022/09/11 10:34:39;;;;;;;8.35;2.28;;;20.10;99.90;;;;;;5042212;28;20047;-76
2022/09/11 10:37:14;;;;;;;5.35;1.95;;;20.10;99.90;;;;;;5063853;28;20040;-75
2022/09/11 10:39:42;;;;;;;5.28;1.90;;;20.20;99.90;;;;;;5053985;28;20048;-74
2022/09/11 10:42:20;;;;;;;5.75;2.40;;;20.20;99.90;;;;;;5061470;28;20068;-74
2022/09/11 10:44:49;;;;;;;5.07;1.80;;;20.20;99.90;;;;;;5052916;28;20098;-75
2022/09/11 10:47:23;;;;;;;5.72;1.80;;;20.30;99.90;;;;;;5053705;28;20094;-75
2022/09/11 10:50:10;;;;;;;4.32;1.52;;;20.30;99.90;;;;;;5038534;28;20059;-75
2022/09/11 10:53:09;;;;;;;6.38;2.63;;;20.40;99.90;;;;;;5054884;28;20414;-75
2022/09/11 10:55:44;;;;;;;6.63;2.50;;;20.30;99.90;;;;;;5026324;28;20049;-74
2022/09/11 10:58:18;;;;;;;6.32;2.90;;;20.30;99.90;;;;;;5046281;28;20040;-74
2022/09/11 11:00:44;;;;;;;7.40;2.70;;;20.30;99.90;;;;;;5037534;28;20222;-75
2022/09/11 11:03:16;;;;;;;6.88;3.20;;;20.20;99.90;;;;;;5071373;28;20153;-75
2022/09/11 11:05:59;;;;;;;6.35;3.17;;;20.20;99.90;;;;;;5054040;28;20056;-76
2022/09/11 11:08:55;;;;;;;7.15;2.80;;;20.10;99.90;;;;;;5039099;28;20048;-73
2022/09/11 11:11:39;;;;;;;7.78;2.70;;;20.10;99.90;;;;;;5056975;28;20033;-74
2022/09/11 11:14:23;;;;;;;5.40;2.65;;;20.10;99.90;;;;;;5069042;28;20050;-74
2022/09/11 11:17:23;;;;;;;5.25;2.42;;;20.10;99.90;;;;;;5052407;28;20052;-74
2022/09/11 11:20:05;;;;;;;5.53;2.60;;;20.00;99.90;;;;;;5069497;28;20126;-75
2022/09/11 11:22:57;;;;;;;6.18;2.60;;;20.00;99.90;;;;;;5067667;28;20053;-74
2022/09/11 11:25:39;;;;;;;7.07;2.70;;;20.00;99.90;;;;;;5056665;28;20638;-75
2022/09/11 11:28:44;;;;;;;7.70;3.00;;;20.10;99.90;;;;;;5061917;28;20088;-73
2022/09/11 11:31:22;;;;;;;5.65;2.17;;;20.20;99.90;;;;;;5008382;28;20517;-73
2022/09/11 11:34:14;;;;;;;5.63;2.15;;;20.30;99.90;;;;;;5081682;28;20052;-74
2022/09/11 11:36:49;;;;;;;8.55;2.88;;;20.50;99.90;;;;;;5063502;28;20112;-72
2022/09/11 11:39:35;;;;;;;7.68;2.80;;;20.60;99.90;;;;;;5055652;28;20251;-75
2022/09/11 11:42:09;;;;;;;14.43;2.50;;;20.70;99.90;;;;;;5079768;28;20060;-73
2022/09/11 11:44:43;;;;;;;6.80;2.50;;;20.90;99.90;;;;;;5060296;28;20041;-73
2022/09/11 11:47:10;;;;;;;5.47;1.90;;;21.00;99.90;;;;;;5053583;28;20049;-76
2022/09/11 11:49:50;;;;;;;11.27;2.13;;;21.10;99.90;;;;;;5055607;28;20041;-76
2022/09/11 11:52:33;;;;;;;6.05;2.08;;;21.10;99.90;;;;;;5060459;28;20040;-74
2022/09/11 11:55:15;;;;;;;4.80;1.90;;;21.10;99.90;;;;;;5060014;28;20044;-76
2022/09/11 11:57:47;;;;;;;4.90;1.70;;;21.00;99.90;;;;;;5053028;28;20106;-75
2022/09/11 12:00:16;;;;;;;4.50;1.60;;;20.90;99.90;;;;;;5049495;28;20063;-76
2022/09/11 12:03:02;;;;;;;3.92;1.80;;;20.80;99.90;;;;;;5067414;28;20048;-73
2022/09/11 12:05:33;;;;;;;3.95;1.60;;;20.70;99.90;;;;;;5051903;28;20052;-76
2022/09/11 12:08:00;;;;;;;5.45;1.85;;;20.60;99.90;;;;;;5053652;28;20048;-75
2022/09/11 12:10:33;;;;;;;5.85;1.80;;;20.50;99.90;;;;;;5048646;28;20049;-74
2022/09/11 12:13:06;;;;;;;5.55;1.88;;;20.40;99.90;;;;;;5045726;28;21982;-74
2022/09/11 12:15:34;;;;;;;5.65;1.92;;;20.40;99.90;;;;;;5047439;28;20137;-74
2022/09/11 12:18:20;;;;;;;4.07;1.63;;;20.40;99.90;;;;;;5047451;28;20824;-75
2022/09/11 12:20:46;;;;;;;5.13;1.77;;;20.40;99.90;;;;;;5065115;28;20080;-75
2022/09/11 12:23:53;;;;;;;6.63;1.80;;;20.50;99.90;;;;;;5032550;28;20182;-75
2022/09/11 12:26:23;;;;;;;7.43;1.55;;;20.50;99.90;;;;;;5046759;28;20451;-74
2022/09/11 12:29:13;;;;;;;4.80;1.70;;;20.50;99.90;;;;;;5050778;28;20048;-75
2022/09/11 12:31:48;;;;;;;6.28;2.00;;;20.50;99.90;;;;;;5063517;28;20296;-76
2022/09/11 12:34:23;;;;;;;5.75;1.65;;;20.50;99.90;;;;;;5052982;28;20485;-75
2022/09/11 12:37:00;;;;;;;6.05;1.58;;;20.50;99.90;;;;;;5047085;28;20071;-73
2022/09/11 12:39:33;;;;;;;5.28;1.42;;;20.50;99.90;;;;;;5059131;28;20079;-75
2022/09/11 12:42:26;;;;;;;5.85;1.58;;;20.50;99.90;;;;;;5055067;28;20064;-76
2022/09/11 12:44:53;;;;;;;5.57;1.60;;;20.50;99.90;;;;;;5035555;28;20044;-75
2022/09/11 12:47:39;;;;;;;4.97;1.42;;;20.50;99.90;;;;;;5052646;28;20113;-71
2022/09/11 12:50:05;;;;;;;4.07;1.40;;;20.50;99.90;;;;;;5054183;28;20760;-75
2022/09/11 12:52:42;;;;;;;4.82;1.67;;;20.50;99.90;;;;;;5040687;28;20045;-75
2022/09/11 12:55:30;;;;;;;7.47;1.58;;;20.50;99.90;;;;;;5052367;28;20040;-74
2022/09/11 12:58:01;;;;;;;6.38;1.58;;;20.50;99.90;;;;;;5051087;28;20039;-74
2022/09/11 13:00:37;;;;;;;8.52;1.60;;;20.50;99.90;;;;;;5034309;28;20475;-73
2022/09/11 13:03:05;;;;;;;4.88;1.60;;;20.60;99.90;;;;;;5048589;28;20128;-73
2022/09/11 13:05:36;;;;;;;5.07;1.48;;;20.50;99.90;;;;;;5031291;28;20051;-72